Time;durP1;ratioP1;P1;durP2;ratioP2;P2;SDS_P1;SDS_P2;PMS_P1;PMS_P2;Temp;Humidity;BMP_temperature;BMP_pressure;BME280_temperature;BME280_humidity;BME280_pressure;Samples;Min_cycle;Max_cycle;Signal;HPM_P1;HPM_P2
2022/10/02 00:01:56;;;;;;;;;;;;;;;12.99;86.87;101337.81;5017132;28;19909;-84
2022/10/02 00:04:25;;;;;;;;;;;;;;;12.99;86.03;101346.66;5017649;28;19909;-84
2022/10/02 00:06:53;;;;;;;;;;;;;;;13.00;85.64;101363.47;5016803;28;19909;-84
2022/10/02 00:09:24;;;;;;;;;;;;;;;13.03;87.28;101361.75;5017167;28;19915;-85
2022/10/02 00:11:52;;;;;;;;;;;;;;;13.03;86.49;101368.81;5017179;28;20400;-84
2022/10/02 00:14:19;;;;;;;;;;;;;;;13.04;86.77;101360.84;5016872;28;20350;-84
2022/10/02 00:16:46;;;;;;;;;;;;;;;13.03;86.75;101363.50;5016675;28;19913;-83
2022/10/02 00:19:14;;;;;;;;;;;;;;;13.03;86.36;101364.38;5016450;28;19972;-83
2022/10/02 00:21:45;;;;;;;;;;;;;;;13.04;87.36;101367.94;5016771;28;19909;-83
2022/10/02 00:24:13;;;;;;;;;;;;;;;13.01;87.59;101368.78;5016851;28;19941;-84
2022/10/02 00:26:41;;;;;;;;;;;;;;;12.99;86.16;101365.25;4999011;28;19909;-84
2022/10/02 00:29:14;;;;;;;;;;;;;;;13.01;85.75;101370.53;5016688;28;19913;-83
2022/10/02 00:31:40;;;;;;;;;;;;;;;13.04;86.04;101362.63;4999041;28;19910;-84
2022/10/02 00:34:11;;;;;;;;;;;;;;;13.04;85.89;101368.81;4985963;28;19953;-83
2022/10/02 00:36:37;;;;;;;;;;;;;;;13.07;86.29;101377.69;4977835;28;19916;-83
2022/10/02 00:39:21;;;;;;;;;;;;;;;13.11;86.02;101371.53;4977305;28;19914;-83
2022/10/02 00:42:06;;;;;;;;;;;;;;;13.15;86.05;101371.56;4977168;28;19960;-83
2022/10/02 00:44:31;;;;;;;;;;;;;;;13.17;86.04;101377.78;4977126;28;20000;-83
2022/10/02 00:47:13;;;;;;;;;;;;;;;13.18;83.78;101371.56;4976218;28;20008;-84
2022/10/02 00:49:57;;;;;;;;;;;;;;;13.21;84.60;101373.38;4977129;28;19969;-84
2022/10/02 00:52:32;;;;;;;;;;;;;;;13.21;86.01;101374.28;4977736;28;19910;-84
2022/10/02 00:55:10;;;;;;;;;;;;;;;13.22;87.11;101369.84;4977769;28;19911;-84
2022/10/02 00:57:51;;;;;;;;;;;;;;;13.23;87.76;101380.53;4974912;28;19921;-84
2022/10/02 01:00:17;;;;;;;;;;;;;;;13.22;86.78;101370.75;4977192;28;20053;-84
2022/10/02 01:02:58;;;;;;;;;;;;;;;13.21;88.83;101363.66;4975810;28;20327;-84
2022/10/02 01:05:24;;;;;;;;;;;;;;;13.22;89.10;101372.50;4976854;28;20078;-84
2022/10/02 01:07:51;;;;;;;;;;;;;;;13.22;86.35;101377.81;4975609;28;19910;-84
2022/10/02 01:10:17;;;;;;;;;;;;;;;13.21;88.53;101368.97;4977095;28;20266;-84
2022/10/02 01:12:43;;;;;;;;;;;;;;;13.19;88.84;101376.03;4975583;28;20000;-84
2022/10/02 01:15:19;;;;;;;;;;;;;;;13.18;91.24;101378.66;4977435;28;19948;-84
2022/10/02 01:17:45;;;;;;;;;;;;;;;13.18;89.84;101371.56;4975513;28;20013;-83
2022/10/02 01:20:18;;;;;;;;;;;;;;;13.17;87.81;101372.47;4976540;28;19914;-83
2022/10/02 01:22:44;;;;;;;;;;;;;;;13.19;89.71;101365.41;4975678;28;19910;-84
2022/10/02 01:25:09;;;;;;;;;;;;;;;13.18;89.49;101362.72;4975242;28;19917;-84
2022/10/02 01:27:35;;;;;;;;;;;;;;;13.19;89.44;101361.84;4976636;28;19976;-84
2022/10/02 01:30:02;;;;;;;;;;;;;;;13.20;90.68;101363.66;4976570;28;19980;-84
2022/10/02 01:32:30;;;;;;;;;;;;;;;13.20;90.01;101363.66;4975455;28;19917;-84
2022/10/02 01:34:56;;;;;;;;;;;;;;;13.21;91.34;101363.66;5009710;28;19917;-84
2022/10/02 01:37:23;;;;;;;;;;;;;;;13.21;92.24;101366.31;5015197;28;20012;-84
2022/10/02 01:39:48;;;;;;;;;;;;;;;13.22;90.29;101372.50;5015131;28;19979;-84
2022/10/02 01:42:14;;;;;;;;;;;;;;;13.24;89.71;101376.09;5015922;28;20349;-84
2022/10/02 01:44:40;;;;;;;;;;;;;;;13.25;89.64;101372.56;4997456;28;19956;-84
2022/10/02 01:47:11;;;;;;;;;;;;;;;13.25;88.93;101373.44;4997694;28;20015;-84
2022/10/02 01:49:39;;;;;;;;;;;;;;;13.28;88.94;101375.25;4997732;28;19936;-84
2022/10/02 01:52:04;;;;;;;;;;;;;;;13.29;91.04;101382.34;5015210;28;19956;-84
2022/10/02 01:55:00;;;;;;;;;;;;;;;13.31;89.11;101383.22;4997851;28;19909;-84
2022/10/02 01:57:31;;;;;;;;;;;;;;;13.30;90.80;101376.13;4992694;28;19956;-84
2022/10/02 02:00:09;;;;;;;;;;;;;;;13.32;91.82;101377.06;5014812;28;20353;-84
2022/10/02 02:02:56;;;;;;;;;;;;;;;13.31;91.42;101371.72;5015570;28;19909;-85
2022/10/02 02:05:40;;;;;;;;;;;;;;;13.31;89.70;101377.91;5015445;28;19995;-84
2022/10/02 02:08:13;;;;;;;;;;;;;;;13.31;90.73;101383.22;4997208;28;19909;-85
2022/10/02 02:10:43;;;;;;;;;;;;;;;13.34;89.65;101379.72;4997218;28;19992;-84
2022/10/02 02:13:21;;;;;;;;;;;;;;;13.35;88.96;101376.19;4997502;28;19916;-84
2022/10/02 02:16:06;;;;;;;;;;;;;;;13.38;89.80;101373.56;5015078;28;19913;-85
2022/10/02 02:18:42;;;;;;;;;;;;;;;13.38;89.88;101381.53;5013787;28;19913;-84
2022/10/02 02:21:11;;;;;;;;;;;;;;;13.37;89.61;101377.97;5014721;28;19964;-84
2022/10/02 02:23:38;;;;;;;;;;;;;;;13.41;89.26;101382.44;5014711;28;19917;-84
2022/10/02 02:26:06;;;;;;;;;;;;;;;13.44;91.71;101378.91;5014306;28;19956;-84
2022/10/02 02:28:33;;;;;;;;;;;;;;;13.44;90.33;101379.78;5014592;28;19960;-85
2022/10/02 02:31:00;;;;;;;;;;;;;;;13.43;91.53;101377.13;4997048;28;20330;-84
2022/10/02 02:33:42;;;;;;;;;;;;;;;13.44;92.20;101384.22;4996899;28;19913;-84
2022/10/02 02:36:12;;;;;;;;;;;;;;;13.44;91.90;101387.75;5014544;28;19917;-84
2022/10/02 02:38:47;;;;;;;;;;;;;;;13.46;92.38;101388.66;4997123;28;19910;-85
2022/10/02 02:41:15;;;;;;;;;;;;;;;13.49;91.45;101377.19;5014497;28;19909;-85
2022/10/02 02:43:40;;;;;;;;;;;;;;;13.53;91.36;101384.28;4996912;28;20357;-84
2022/10/02 02:46:08;;;;;;;;;;;;;;;13.55;90.84;101376.34;4996829;28;19910;-85
2022/10/02 02:48:45;;;;;;;;;;;;;;;13.57;91.43;101369.25;4996742;28;19909;-85
2022/10/02 02:51:16;;;;;;;;;;;;;;;13.58;90.27;101379.91;4997713;28;20026;-85
2022/10/02 02:53:46;;;;;;;;;;;;;;;13.60;90.10;101387.88;5014480;28;19945;-85
2022/10/02 02:56:16;;;;;;;;;;;;;;;13.64;89.74;101389.66;4996538;28;19909;-85
2022/10/02 02:58:47;;;;;;;;;;;;;;;13.64;89.97;101395.88;5014343;28;19916;-84
2022/10/02 03:01:12;;;;;;;;;;;;;;;13.67;89.39;101393.25;4996738;28;19968;-84
2022/10/02 03:03:40;;;;;;;;;;;;;;;13.66;89.80;101402.09;5014379;28;20015;-84
2022/10/02 03:06:24;;;;;;;;;;;;;;;13.66;88.88;101393.22;5014417;28;19956;-85
2022/10/02 03:08:50;;;;;;;;;;;;;;;13.65;88.28;101391.44;5014293;28;19915;-84
2022/10/02 03:11:28;;;;;;;;;;;;;;;13.65;88.49;101386.13;4997074;28;20004;-84
2022/10/02 03:13:53;;;;;;;;;;;;;;;13.65;87.52;101399.41;5014053;28;19909;-84
2022/10/02 03:16:32;;;;;;;;;;;;;;;13.63;88.12;101391.44;5014467;28;19910;-84
2022/10/02 03:18:57;;;;;;;;;;;;;;;13.61;87.96;101390.53;5014598;28;19909;-84
2022/10/02 03:21:27;;;;;;;;;;;;;;;13.61;87.40;101387.00;5016170;28;19940;-85
2022/10/02 03:24:07;;;;;;;;;;;;;;;13.57;86.80;101387.84;5017662;28;19910;-84
2022/10/02 03:26:40;;;;;;;;;;;;;;;13.53;87.24;101389.56;5017581;28;19910;-84
2022/10/02 03:29:09;;;;;;;;;;;;;;;13.50;86.88;101397.53;5017880;28;20004;-84
2022/10/02 03:31:35;;;;;;;;;;;;;;;13.48;86.77;101401.94;5000392;28;20008;-84
2022/10/02 03:34:01;;;;;;;;;;;;;;;13.46;86.59;101391.31;5017939;28;19959;-84
2022/10/02 03:36:27;;;;;;;;;;;;;;;13.45;87.07;101399.28;5001795;28;19914;-85
2022/10/02 03:38:54;;;;;;;;;;;;;;;13.44;86.51;101395.72;5021525;28;19913;-84
2022/10/02 03:41:20;;;;;;;;;;;;;;;13.43;86.39;101396.59;5003835;28;19931;-85
2022/10/02 03:43:45;;;;;;;;;;;;;;;13.45;86.73;101399.28;5005208;28;20008;-86
2022/10/02 03:46:11;;;;;;;;;;;;;;;13.46;86.32;101416.97;5022942;28;19914;-88
2022/10/02 03:48:36;;;;;;;;;;;;;;;13.44;87.63;101413.41;5026543;28;19951;-89
2022/10/02 03:51:01;;;;;;;;;;;;;;;13.41;87.64;101419.59;5023939;28;20369;-89
2022/10/02 03:53:31;;;;;;;;;;;;;;;13.38;87.11;101414.25;5006976;28;19914;-88
2022/10/02 03:56:03;;;;;;;;;;;;;;;13.37;86.99;101412.50;4989108;28;20238;-87
2022/10/02 03:58:29;;;;;;;;;;;;;;;13.34;89.93;101409.78;5021427;28;19978;-87
2022/10/02 04:00:58;;;;;;;;;;;;;;;13.32;88.19;101421.25;5020131;28;20298;-87
2022/10/02 04:03:28;;;;;;;;;;;;;;;13.31;87.47;101414.19;4999721;28;19916;-87
2022/10/02 04:05:58;;;;;;;;;;;;;;;13.28;87.83;101415.06;5017141;28;19909;-86
2022/10/02 04:08:26;;;;;;;;;;;;;;;13.27;87.94;101408.88;5000493;28;19909;-86
2022/10/02 04:11:12;;;;;;;;;;;;;;;13.28;88.39;101413.31;4999574;28;20385;-86
2022/10/02 04:13:40;;;;;;;;;;;;;;;13.27;88.04;101406.22;4999878;28;19909;-86
2022/10/02 04:16:12;;;;;;;;;;;;;;;13.26;88.68;101401.75;4999703;28;19909;-86
2022/10/02 04:18:46;;;;;;;;;;;;;;;13.25;88.45;101409.72;5017286;28;19909;-86
2022/10/02 04:21:23;;;;;;;;;;;;;;;13.22;88.62;101415.88;5017025;28;19916;-87
2022/10/02 04:23:52;;;;;;;;;;;;;;;13.22;88.18;101414.97;5000524;28;19909;-86
2022/10/02 04:26:23;;;;;;;;;;;;;;;13.21;88.49;101406.13;5016534;28;19996;-85
2022/10/02 04:28:54;;;;;;;;;;;;;;;13.21;88.20;101405.22;4999641;28;19916;-87
2022/10/02 04:31:19;;;;;;;;;;;;;;;13.22;88.12;101392.00;5000153;28;19913;-86
2022/10/02 04:33:45;;;;;;;;;;;;;;;13.24;88.05;101398.22;5017199;28;19914;-86
2022/10/02 04:36:30;;;;;;;;;;;;;;;13.25;88.32;101404.41;5016465;28;19913;-86
2022/10/02 04:39:09;;;;;;;;;;;;;;;13.26;89.10;101406.19;5017551;28;19913;-86
2022/10/02 04:41:56;;;;;;;;;;;;;;;13.27;88.88;101413.25;5017359;28;19967;-86
2022/10/02 04:44:24;;;;;;;;;;;;;;;13.24;90.13;101415.91;5016598;28;20325;-86
2022/10/02 04:46:49;;;;;;;;;;;;;;;13.24;88.98;101415.91;5016735;28;20420;-86
2022/10/02 04:49:26;;;;;;;;;;;;;;;13.24;90.58;101423.88;5016789;28;19913;-87
2022/10/02 04:52:04;;;;;;;;;;;;;;;13.26;88.88;101432.72;5017325;28;20004;-86
2022/10/02 04:54:33;;;;;;;;;;;;;;;13.30;88.79;101438.97;5000033;28;19909;-86
2022/10/02 04:57:17;;;;;;;;;;;;;;;13.33;88.77;101441.66;4999191;28;19924;-86
2022/10/02 04:59:42;;;;;;;;;;;;;;;13.35;88.89;101445.19;4998629;28;19916;-86
2022/10/02 05:02:17;;;;;;;;;;;;;;;13.37;89.60;101439.03;4998984;28;20328;-86
2022/10/02 05:05:01;;;;;;;;;;;;;;;13.39;89.73;101436.38;5017264;28;20325;-85
2022/10/02 05:07:33;;;;;;;;;;;;;;;13.40;91.19;101447.00;4999128;28;19984;-86
2022/10/02 05:10:06;;;;;;;;;;;;;;;13.40;90.65;101443.47;4998966;28;19910;-86
2022/10/02 05:12:47;;;;;;;;;;;;;;;13.41;89.47;101442.59;4999293;28;19917;-86
2022/10/02 05:15:22;;;;;;;;;;;;;;;13.41;89.83;101447.91;4999511;28;19916;-86
2022/10/02 05:17:56;;;;;;;;;;;;;;;13.43;90.05;101444.38;5016740;28;19909;-86
2022/10/02 05:20:36;;;;;;;;;;;;;;;13.46;90.33;101448.84;4999267;28;19996;-86
2022/10/02 05:23:01;;;;;;;;;;;;;;;13.45;90.58;101431.13;4999639;28;19909;-86
2022/10/02 05:25:46;;;;;;;;;;;;;;;13.45;90.77;101440.00;4999203;28;19991;-85
2022/10/02 05:28:30;;;;;;;;;;;;;;;13.46;89.92;101447.06;5019875;28;19995;-85
2022/10/02 05:31:04;;;;;;;;;;;;;;;13.48;91.52;101461.22;5031889;28;19909;-85
2022/10/02 05:33:36;;;;;;;;;;;;;;;13.51;88.92;101463.03;5021635;28;19924;-85
2022/10/02 05:36:13;;;;;;;;;;;;;;;13.52;89.24;101462.16;5038953;28;19921;-84
2022/10/02 05:38:44;;;;;;;;;;;;;;;13.53;90.52;101463.94;5039442;28;19973;-85
2022/10/02 05:41:28;;;;;;;;;;;;;;;13.56;89.56;101460.41;5022015;28;19901;-85
2022/10/02 05:44:23;;;;;;;;;;;;;;;13.59;91.08;101471.97;5037993;28;19952;-85
2022/10/02 05:46:57;;;;;;;;;;;;;;;13.61;91.03;101471.97;5019654;28;19910;-85
2022/10/02 05:49:31;;;;;;;;;;;;;;;13.63;89.58;101473.78;5032569;28;19909;-84
2022/10/02 05:51:58;;;;;;;;;;;;;;;13.67;89.71;101474.69;5034643;28;19980;-86
2022/10/02 05:54:38;;;;;;;;;;;;;;;13.66;92.74;101475.53;5032511;28;19909;-85
2022/10/02 05:57:09;;;;;;;;;;;;;;;13.68;91.69;101481.78;5015118;28;19909;-85
2022/10/02 05:59:51;;;;;;;;;;;;;;;13.69;92.76;101475.56;5018104;28;19960;-86
2022/10/02 06:02:26;;;;;;;;;;;;;;;13.69;91.67;101471.16;5038831;28;19909;-84
2022/10/02 06:05:15;;;;;;;;;;;;;;;13.71;92.40;101466.75;5031823;28;20008;-85
2022/10/02 06:07:42;;;;;;;;;;;;;;;13.69;93.76;101468.50;5019195;28;19910;-83
2022/10/02 06:10:13;;;;;;;;;;;;;;;13.70;91.83;101477.34;5037040;28;19910;-84
2022/10/02 06:12:41;;;;;;;;;;;;;;;13.73;92.19;101472.94;5018308;28;19940;-83
2022/10/02 06:15:22;;;;;;;;;;;;;;;13.73;92.08;101491.53;5007336;28;19917;-84
2022/10/02 06:17:51;;;;;;;;;;;;;;;13.74;91.10;101498.63;5024760;28;19909;-83
2022/10/02 06:20:20;;;;;;;;;;;;;;;13.76;91.18;101504.84;5006386;28;19952;-84
2022/10/02 06:22:52;;;;;;;;;;;;;;;13.78;92.41;101512.81;4998622;28;20275;-85
2022/10/02 06:25:38;;;;;;;;;;;;;;;13.80;91.74;101504.91;5014424;28;20412;-85
2022/10/02 06:28:09;;;;;;;;;;;;;;;13.84;92.16;101512.91;5016145;28;19979;-85
2022/10/02 06:30:37;;;;;;;;;;;;;;;13.85;94.30;101514.66;5015895;28;19909;-85
2022/10/02 06:33:11;;;;;;;;;;;;;;;13.86;94.95;101504.94;5015453;28;19909;-85
2022/10/02 06:35:42;;;;;;;;;;;;;;;13.86;93.88;101510.25;5015543;28;19921;-85
2022/10/02 06:38:26;;;;;;;;;;;;;;;13.87;92.88;101512.91;5015948;28;19940;-85
2022/10/02 06:41:07;;;;;;;;;;;;;;;13.88;93.19;101509.38;4998628;28;20005;-85
2022/10/02 06:43:32;;;;;;;;;;;;;;;13.89;92.11;101521.78;5015520;28;19920;-85
2022/10/02 06:46:07;;;;;;;;;;;;;;;13.91;93.34;101524.44;5015759;28;19909;-85
2022/10/02 06:48:53;;;;;;;;;;;;;;;13.94;94.35;101520.06;5015231;28;20004;-85
2022/10/02 06:51:41;;;;;;;;;;;;;;;13.92;93.49;101527.13;5015063;28;20008;-85
2022/10/02 06:54:20;;;;;;;;;;;;;;;13.93;93.78;101530.69;4995645;28;19940;-85
2022/10/02 06:57:04;;;;;;;;;;;;;;;13.94;95.83;101529.78;5017487;28;19939;-85
2022/10/02 06:59:36;;;;;;;;;;;;;;;13.93;94.56;101546.63;5001437;28;19913;-85
2022/10/02 07:02:16;;;;;;;;;;;;;;;13.94;94.51;101549.28;5018867;28;20051;-85
2022/10/02 07:04:53;;;;;;;;;;;;;;;13.95;93.53;101548.38;5018886;28;19959;-84
2022/10/02 07:07:25;;;;;;;;;;;;;;;13.96;94.12;101546.63;5018309;28;19910;-85
2022/10/02 07:10:09;;;;;;;;;;;;;;;13.96;94.39;101550.19;5018626;28;19940;-84
2022/10/02 07:13:01;;;;;;;;;;;;;;;13.98;94.82;101545.78;5019022;28;19913;-84
2022/10/02 07:15:34;;;;;;;;;;;;;;;14.03;94.77;101553.78;5001151;28;20373;-85
2022/10/02 07:18:10;;;;;;;;;;;;;;;14.07;95.42;101554.69;5018756;28;19916;-85
2022/10/02 07:20:41;;;;;;;;;;;;;;;14.09;94.33;101556.50;5016964;28;19909;-85
2022/10/02 07:23:26;;;;;;;;;;;;;;;14.13;93.79;101560.03;5000359;28;19971;-85
2022/10/02 07:25:57;;;;;;;;;;;;;;;14.16;95.89;101560.97;5018178;28;20044;-84
2022/10/02 07:28:41;;;;;;;;;;;;;;;14.16;93.83;101553.00;4999967;28;19909;-84
2022/10/02 07:31:23;;;;;;;;;;;;;;;14.17;95.80;101560.06;5000004;28;20000;-84
2022/10/02 07:34:10;;;;;;;;;;;;;;;14.17;95.59;101559.19;5000169;28;20310;-84
2022/10/02 07:36:47;;;;;;;;;;;;;;;14.18;95.88;101556.56;5019322;28;19910;-85
2022/10/02 07:39:31;;;;;;;;;;;;;;;14.19;95.45;101568.97;5017785;28;19913;-84
2022/10/02 07:42:00;;;;;;;;;;;;;;;14.23;95.45;101576.09;5000875;28;19996;-84
2022/10/02 07:44:31;;;;;;;;;;;;;;;14.25;94.83;101573.44;5017689;28;19909;-84
2022/10/02 07:47:15;;;;;;;;;;;;;;;14.28;94.69;101562.81;5017311;28;20012;-84
2022/10/02 07:49:40;;;;;;;;;;;;;;;14.34;93.00;101570.84;5000215;28;19913;-84
2022/10/02 07:52:23;;;;;;;;;;;;;;;14.41;93.11;101569.13;5017362;28;20345;-84
2022/10/02 07:54:57;;;;;;;;;;;;;;;14.47;93.59;101574.47;5000903;28;20013;-84
2022/10/02 07:57:35;;;;;;;;;;;;;;;14.53;93.61;101574.56;5017253;28;19999;-82
2022/10/02 08:00:05;;;;;;;;;;;;;;;14.57;92.46;101572.81;5017287;28;19956;-83
2022/10/02 08:02:37;;;;;;;;;;;;;;;14.63;94.14;101573.72;5017061;28;19909;-84
2022/10/02 08:05:07;;;;;;;;;;;;;;;14.72;93.49;101587.06;5016880;28;19909;-85
2022/10/02 08:07:33;;;;;;;;;;;;;;;14.82;93.61;101596.00;5016910;28;19936;-85
2022/10/02 08:10:01;;;;;;;;;;;;;;;14.91;93.17;101595.16;5017249;28;19913;-84
2022/10/02 08:12:31;;;;;;;;;;;;;;;15.00;93.74;101595.19;4999837;28;19913;-84
2022/10/02 08:14:58;;;;;;;;;;;;;;;15.05;92.89;101592.56;5018032;28;19913;-84
2022/10/02 08:17:43;;;;;;;;;;;;;;;15.10;92.29;101609.44;5017395;28;20346;-85
2022/10/02 08:20:17;;;;;;;;;;;;;;;15.12;91.51;101608.56;5016924;28;19909;-85
2022/10/02 08:22:49;;;;;;;;;;;;;;;15.13;92.85;101607.69;5017005;28;19916;-85
2022/10/02 08:25:25;;;;;;;;;;;;;;;15.15;91.38;101616.53;5016813;28;19948;-85
2022/10/02 08:28:01;;;;;;;;;;;;;;;15.19;92.05;101621.00;5016741;28;19913;-84
2022/10/02 08:30:27;;;;;;;;;;;;;;;15.23;92.04;101630.78;5016584;28;20369;-84
2022/10/02 08:32:52;;;;;;;;;;;;;;;15.27;92.26;101629.91;5016580;28;19944;-84
2022/10/02 08:35:18;;;;;;;;;;;;;;;15.31;90.86;101633.47;5017585;28;19920;-84
2022/10/02 08:38:03;;;;;;;;;;;;;;;15.34;92.04;101627.28;5016565;28;19939;-85
2022/10/02 08:40:29;;;;;;;;;;;;;;;15.32;91.41;101621.94;5017132;28;19916;-83
2022/10/02 08:42:55;;;;;;;;;;;;;;;15.36;91.60;101625.50;5016760;28;19971;-85
2022/10/02 08:45:23;;;;;;;;;;;;;;;15.39;90.73;101641.50;5016361;28;20281;-85
2022/10/02 08:48:05;;;;;;;;;;;;;;;15.36;90.82;101639.72;5016145;28;20355;-94
2022/10/02 08:50:39;;;;;;;;;;;;;;;15.37;90.97;101638.81;4998936;28;19910;-91
2022/10/02 08:53:24;;;;;;;;;;;;;;;15.40;90.76;101645.94;4998915;28;19909;-89
2022/10/02 08:56:02;;;;;;;;;;;;;;;15.44;91.04;101653.06;4988761;28;19956;-89
2022/10/02 08:58:36;;;;;;;;;;;;;;;15.49;90.93;101649.53;5016870;28;19943;-89
2022/10/02 09:01:20;;;;;;;;;;;;;;;15.52;90.65;101644.22;5016211;28;20036;-90
2022/10/02 09:04:04;;;;;;;;;;;;;;;15.59;90.02;101660.19;5016249;28;20338;-91
2022/10/02 09:06:47;;;;;;;;;;;;;;;15.64;90.24;101662.06;5016178;28;20016;-93
2022/10/02 09:09:26;;;;;;;;;;;;;;;15.69;89.99;101668.28;5016222;28;20373;-91
2022/10/02 09:11:56;;;;;;;;;;;;;;;15.74;90.22;101676.28;4999170;28;20007;-91
2022/10/02 09:14:32;;;;;;;;;;;;;;;15.77;89.97;101668.31;4998470;28;19953;-87
2022/10/02 09:17:21;;;;;;;;;;;;;;;15.82;90.27;101669.19;4998210;28;19909;-88
2022/10/02 09:19:52;;;;;;;;;;;;;;;15.96;89.95;101669.22;4995523;28;20454;-88
2022/10/02 09:22:43;;;;;;;;;;;;;;;16.10;89.46;101663.91;4999051;28;19913;-88
2022/10/02 09:25:27;;;;;;;;;;;;;;;16.35;89.07;101670.16;4988451;28;19959;-86
2022/10/02 09:27:56;;;;;;;;;;;;;;;16.60;88.18;101658.56;5015923;28;19948;-86
2022/10/02 09:30:21;;;;;;;;;;;;;;;16.79;87.99;101664.84;5016374;28;19959;-86
2022/10/02 09:32:46;;;;;;;;;;;;;;;16.86;86.95;101668.34;5015509;28;19910;-87
2022/10/02 09:35:21;;;;;;;;;;;;;;;16.85;86.62;101667.47;5015394;28;19921;-87
2022/10/02 09:37:53;;;;;;;;;;;;;;;16.83;86.58;101669.28;5016048;28;19920;-93
2022/10/02 09:40:18;;;;;;;;;;;;;;;16.85;86.03;101677.25;5015514;28;20246;-93
2022/10/02 09:42:59;;;;;;;;;;;;;;;16.88;86.73;101677.28;5015476;28;19909;-95
2022/10/02 09:45:35;;;;;;;;;;;;;;;16.97;86.40;101687.94;4997969;28;19910;-93
2022/10/02 09:48:19;;;;;;;;;;;;;;;17.03;86.48;101685.22;5015123;28;19914;-91
2022/10/02 09:51:04;;;;;;;;;;;;;;;17.18;85.91;101687.88;5015864;28;19916;-87
2022/10/02 09:53:35;;;;;;;;;;;;;;;17.22;85.12;101694.97;5015209;28;19996;-89
2022/10/02 09:56:22;;;;;;;;;;;;;;;17.22;84.88;101686.97;5015533;28;20017;-87
2022/10/02 09:59:03;;;;;;;;;;;;;;;17.23;85.02;101686.06;5015729;28;19916;-87
2022/10/02 10:01:47;;;;;;;;;;;;;;;17.33;84.57;101692.25;4997486;28;19991;-86
2022/10/02 10:04:18;;;;;;;;;;;;;;;17.48;84.65;101694.88;5015367;28;19913;-87
2022/10/02 10:06:43;;;;;;;;;;;;;;;17.74;84.75;101689.44;5014857;28;19909;-85
2022/10/02 10:09:08;;;;;;;;;;;;;;;18.08;84.08;101693.72;5015244;28;19909;-83
2022/10/02 10:11:53;;;;;;;;;;;;;;;18.47;83.50;101687.16;5014853;28;19932;-84
2022/10/02 10:14:43;;;;;;;;;;;;;;;18.75;81.06;101695.84;5015374;28;19955;-83
2022/10/02 10:17:09;;;;;;;;;;;;;;;18.82;80.68;101689.56;5015155;28;19909;-83
2022/10/02 10:19:37;;;;;;;;;;;;;;;18.91;80.00;101689.44;4997965;28;20206;-83
2022/10/02 10:22:08;;;;;;;;;;;;;;;19.17;80.59;101699.00;4997035;28;19909;-82
2022/10/02 10:24:52;;;;;;;;;;;;;;;19.42;78.33;101702.28;5014968;28;20008;-80
2022/10/02 10:27:55;;;;;;;;;;;;;;;19.49;77.16;101714.72;5014375;28;19909;-81
2022/10/02 10:30:36;;;;;;;;;;;;;;;19.37;79.18;101713.06;4973066;28;19917;-81
2022/10/02 10:33:04;;;;;;;;;;;;;;;19.36;75.66;101729.19;4972872;28;20416;-82
2022/10/02 10:35:44;;;;;;;;;;;;;;;19.37;74.29;101723.78;4989088;28;19936;-82
2022/10/02 10:38:31;;;;;;;;;;;;;;;19.38;77.26;101725.56;5014632;28;19916;-81
2022/10/02 10:41:09;;;;;;;;;;;;;;;19.52;76.11;101744.16;4999179;28;20016;-82
2022/10/02 10:43:53;;;;;;;;;;;;;;;19.49;76.12;101742.41;5014355;28;19909;-82
2022/10/02 10:46:37;;;;;;;;;;;;;;;19.39;76.03;101732.69;5014162;28;19931;-82
2022/10/02 10:49:26;;;;;;;;;;;;;;;19.23;73.54;101740.03;5014507;28;19910;-81
2022/10/02 10:52:06;;;;;;;;;;;;;;;19.13;73.21;101754.41;5014745;28;20250;-82
2022/10/02 10:54:50;;;;;;;;;;;;;;;19.02;74.63;101749.16;5014624;28;19916;-82
2022/10/02 10:57:15;;;;;;;;;;;;;;;18.96;76.27;101741.19;5014968;28;19952;-85
2022/10/02 10:59:43;;;;;;;;;;;;;;;18.95;74.13;101750.13;5014674;28;19925;-82
2022/10/02 11:02:13;;;;;;;;;;;;;;;18.99;72.91;101734.91;5014421;28;20004;-83
2022/10/02 11:04:57;;;;;;;;;;;;;;;19.01;73.80;101742.06;5018171;28;19972;-81
2022/10/02 11:07:33;;;;;;;;;;;;;;;18.98;73.98;101736.72;5019490;28;19913;-82
2022/10/02 11:10:06;;;;;;;;;;;;;;;19.01;74.04;101736.69;4996664;28;20012;-83
2022/10/02 11:12:38;;;;;;;;;;;;;;;19.00;74.25;101734.00;5014163;28;19963;-82
2022/10/02 11:15:25;;;;;;;;;;;;;;;19.07;74.77;101737.53;4996470;28;19913;-82
2022/10/02 11:18:02;;;;;;;;;;;;;;;19.11;74.03;101729.44;5013870;28;20280;-82
2022/10/02 11:20:34;;;;;;;;;;;;;;;19.14;74.82;101733.84;5013201;28;19948;-82
2022/10/02 11:23:29;;;;;;;;;;;;;;;19.20;71.42;101732.03;4996594;28;20333;-83
2022/10/02 11:25:54;;;;;;;;;;;;;;;19.31;73.63;101745.28;5004892;28;19910;-83
2022/10/02 11:28:22;;;;;;;;;;;;;;;19.40;72.12;101752.34;5014024;28;19917;-82
2022/10/02 11:30:48;;;;;;;;;;;;;;;19.37;73.00;101755.06;5014102;28;19913;-82
2022/10/02 11:33:32;;;;;;;;;;;;;;;19.19;72.88;101756.16;5013925;28;19909;-82
2022/10/02 11:35:57;;;;;;;;;;;;;;;19.06;73.15;101758.06;5014001;28;19917;-82
2022/10/02 11:38:42;;;;;;;;;;;;;;;19.00;72.06;101755.44;5014827;28;20357;-82
2022/10/02 11:41:30;;;;;;;;;;;;;;;18.97;71.61;101752.78;5014148;28;20356;-81
2022/10/02 11:44:03;;;;;;;;;;;;;;;18.87;72.89;101754.66;5017788;28;20004;-82
2022/10/02 11:46:49;;;;;;;;;;;;;;;18.73;73.31;101767.28;5017533;28;19909;-81
2022/10/02 11:49:25;;;;;;;;;;;;;;;18.59;74.16;101774.53;5017698;28;19967;-81
2022/10/02 11:52:08;;;;;;;;;;;;;;;18.44;73.70;101773.72;5017362;28;19909;-81
2022/10/02 11:54:47;;;;;;;;;;;;;;;18.38;73.69;101775.56;5017237;28;20001;-82
2022/10/02 11:57:18;;;;;;;;;;;;;;;18.34;73.89;101773.78;5017535;28;19910;-81
2022/10/02 11:59:49;;;;;;;;;;;;;;;18.32;73.52;101767.56;5017418;28;19909;-82
2022/10/02 12:02:34;;;;;;;;;;;;;;;18.30;73.81;101770.25;5017467;28;19959;-82
2022/10/02 12:05:07;;;;;;;;;;;;;;;18.30;74.30;101767.56;5017125;28;19951;-83
2022/10/02 12:07:35;;;;;;;;;;;;;;;18.27;73.88;101775.59;5017164;28;19909;-81
2022/10/02 12:10:17;;;;;;;;;;;;;;;18.27;74.21;101768.47;5017173;28;19942;-82
2022/10/02 12:12:52;;;;;;;;;;;;;;;18.33;74.45;101777.34;5018334;28;19909;-80
2022/10/02 12:15:36;;;;;;;;;;;;;;;18.35;74.31;101786.28;5017109;28;19913;-81
2022/10/02 12:18:04;;;;;;;;;;;;;;;18.37;73.90;101785.38;5017653;28;19917;-82
2022/10/02 12:26:58;;;;;;;;;;;;;;;18.40;71.03;101793.38;5016791;28;19932;-81
2022/10/02 12:29:53;;;;;;;;;;;;;;;18.36;72.63;101794.28;5017205;28;19942;-81
2022/10/02 12:32:37;;;;;;;;;;;;;;;18.36;72.10;101796.94;4994011;28;19909;-81
2022/10/02 12:35:30;;;;;;;;;;;;;;;18.35;69.88;101800.53;5016841;28;19917;-80
2022/10/02 12:38:04;;;;;;;;;;;;;;;18.32;71.05;101799.66;4991370;28;19909;-81
2022/10/02 12:40:32;;;;;;;;;;;;;;;18.34;70.07;101796.09;5017395;28;19955;-82
2022/10/02 12:43:00;;;;;;;;;;;;;;;18.47;70.85;101797.78;4999306;28;20376;-81
2022/10/02 12:45:44;;;;;;;;;;;;;;;18.68;71.36;101783.34;5016593;28;19910;-80
2022/10/02 12:48:17;;;;;;;;;;;;;;;19.05;69.58;101790.22;5021535;28;19910;-81
2022/10/02 12:51:04;;;;;;;;;;;;;;;19.36;69.06;101791.72;5021729;28;20250;-80
2022/10/02 12:53:35;;;;;;;;;;;;;;;19.64;69.75;101794.09;5000242;28;19909;-82
2022/10/02 12:56:19;;;;;;;;;;;;;;;19.76;67.44;101786.81;5004081;28;19977;-82
2022/10/02 12:58:50;;;;;;;;;;;;;;;19.83;68.04;101789.41;5021310;28;19916;-83
2022/10/02 13:01:29;;;;;;;;;;;;;;;19.77;68.70;101793.94;5021392;28;19910;-81
2022/10/02 13:04:25;;;;;;;;;;;;;;;19.63;66.96;101789.66;5021235;28;20432;-83
2022/10/02 13:07:10;;;;;;;;;;;;;;;19.55;67.56;101791.50;5013292;28;19921;-81
2022/10/02 13:09:54;;;;;;;;;;;;;;;19.62;67.26;101793.25;5021273;28;19917;-80
2022/10/02 13:12:31;;;;;;;;;;;;;;;19.78;67.43;101802.88;5021141;28;20356;-81
2022/10/02 13:15:15;;;;;;;;;;;;;;;19.98;67.16;101794.59;5022010;28;20352;-81
2022/10/02 13:17:47;;;;;;;;;;;;;;;20.05;64.99;101790.03;5021007;28;19913;-80
2022/10/02 13:20:31;;;;;;;;;;;;;;;20.05;63.75;101800.78;5020924;28;19909;-79